createdAt,value
2023-01-22T00:01:02.249Z,16.55
2023-01-22T00:03:28.652Z,13.20
2023-01-22T00:05:54.969Z,14.80
2023-01-22T00:08:21.360Z,14.60
2023-01-22T00:10:54.407Z,19.55
2023-01-22T00:13:21.741Z,15.85
2023-01-22T00:15:48.356Z,17.30
2023-01-22T00:18:15.106Z,15.80
2023-01-22T00:20:41.777Z,15.55
2023-01-22T00:23:08.265Z,17.33
2023-01-22T00:25:34.684Z,15.93
2023-01-22T00:28:01.015Z,13.90
2023-01-22T00:30:27.407Z,14.30
2023-01-22T00:32:53.761Z,13.23
2023-01-22T00:35:20.113Z,13.57
2023-01-22T00:37:47.182Z,13.10
2023-01-22T00:40:14.182Z,11.10
2023-01-22T00:42:40.745Z,12.82
2023-01-22T00:45:07.417Z,9.75
2023-01-22T00:47:33.734Z,12.45
2023-01-22T00:50:00.649Z,10.70
2023-01-22T00:52:27.010Z,11.57
2023-01-22T00:54:53.349Z,10.98
2023-01-22T00:57:21.826Z,9.68
2023-01-22T00:59:48.577Z,11.52
2023-01-22T01:02:15.250Z,10.98
2023-01-22T01:04:41.852Z,8.70
2023-01-22T01:07:08.488Z,9.65
2023-01-22T01:09:34.788Z,8.27
2023-01-22T01:12:01.582Z,12.13
2023-01-22T01:14:28.260Z,9.07
2023-01-22T01:16:56.761Z,11.07
2023-01-22T01:19:24.636Z,9.15
2023-01-22T01:21:51.213Z,7.45
2023-01-22T01:24:17.544Z,7.60
2023-01-22T01:26:43.912Z,7.53
2023-01-22T01:29:11.662Z,8.52
2023-01-22T01:31:38.703Z,7.75
2023-01-22T01:34:05.173Z,6.72
2023-01-22T01:36:47.608Z,7.13
2023-01-22T01:39:15.190Z,8.57
2023-01-22T01:41:41.623Z,9.10
2023-01-22T01:44:21.595Z,7.00
2023-01-22T01:46:49.833Z,9.27
2023-01-22T01:49:18.339Z,6.22
2023-01-22T01:51:45.378Z,8.85
2023-01-22T01:54:12.322Z,6.40
2023-01-22T01:56:42.246Z,5.50
2023-01-22T01:59:10.558Z,7.18
2023-01-22T02:01:36.918Z,6.65
2023-01-22T02:04:03.573Z,7.90
2023-01-22T02:06:30.003Z,6.55
2023-01-22T02:08:57.708Z,6.68
2023-01-22T02:11:24.903Z,7.18
2023-01-22T02:14:20.545Z,7.28
2023-01-22T02:16:46.962Z,11.10
2023-01-22T02:19:13.307Z,10.95
2023-01-22T02:21:40.935Z,5.78
2023-01-22T02:24:09.062Z,7.45
2023-01-22T02:26:35.627Z,5.93
2023-01-22T02:29:02.167Z,5.95
2023-01-22T02:31:28.957Z,9.77
2023-01-22T02:33:55.384Z,6.80
2023-01-22T02:36:21.805Z,6.35
2023-01-22T02:38:48.217Z,6.53
2023-01-22T02:41:15.761Z,5.57
2023-01-22T02:43:42.123Z,4.97
2023-01-22T02:46:08.519Z,5.55
2023-01-22T02:48:35.208Z,9.25
2023-01-22T02:51:01.570Z,9.52
2023-01-22T02:53:28.022Z,5.63
2023-01-22T02:55:54.437Z,5.80
2023-01-22T02:58:20.814Z,5.45
2023-01-22T03:00:47.208Z,5.88
2023-01-22T03:03:16.576Z,6.57
2023-01-22T03:05:50.101Z,5.90
2023-01-22T03:08:16.618Z,5.20
2023-01-22T03:10:43.444Z,5.13
2023-01-22T03:13:28.376Z,5.85
2023-01-22T03:16:13.265Z,8.43
2023-01-22T03:18:58.019Z,6.38
2023-01-22T03:21:24.475Z,7.10
2023-01-22T03:23:52.446Z,5.75
2023-01-22T03:26:19.589Z,5.85
2023-01-22T03:28:46.186Z,6.60
2023-01-22T03:31:13.708Z,7.03
2023-01-22T03:33:40.259Z,7.28
2023-01-22T03:36:07.986Z,6.18
2023-01-22T03:38:34.314Z,6.25
2023-01-22T03:41:01.677Z,8.00
2023-01-22T03:43:28.028Z,6.90
2023-01-22T03:45:54.440Z,4.95
2023-01-22T03:48:20.882Z,6.90
2023-01-22T03:50:47.280Z,7.78
2023-01-22T03:53:13.626Z,7.78
2023-01-22T03:55:39.997Z,6.30
2023-01-22T03:58:06.414Z,5.03
2023-01-22T04:00:32.992Z,5.68
2023-01-22T04:02:59.398Z,5.68
2023-01-22T04:05:25.745Z,4.90
2023-01-22T04:07:52.099Z,8.00
2023-01-22T04:10:18.837Z,5.68
2023-01-22T04:12:45.392Z,4.47
2023-01-22T04:15:11.912Z,4.60
2023-01-22T04:17:38.277Z,7.28
2023-01-22T04:20:04.814Z,4.45
2023-01-22T04:22:31.204Z,5.20
2023-01-22T04:24:57.583Z,5.40
2023-01-22T04:27:23.974Z,6.03
2023-01-22T04:29:50.340Z,3.35
2023-01-22T04:32:16.684Z,3.95
2023-01-22T04:34:44.221Z,5.35
2023-01-22T04:37:10.616Z,4.15
2023-01-22T04:39:37.008Z,4.00
2023-01-22T04:42:03.396Z,4.72
2023-01-22T04:44:29.704Z,4.78
2023-01-22T04:46:56.043Z,3.83
2023-01-22T04:49:22.385Z,4.00
2023-01-22T04:51:48.697Z,4.05
2023-01-22T04:54:14.992Z,4.78
2023-01-22T04:56:41.322Z,4.35
2023-01-22T04:59:07.697Z,5.45
2023-01-22T05:01:34.064Z,4.97
2023-01-22T05:04:01.581Z,5.53
2023-01-22T05:06:27.952Z,4.35
2023-01-22T05:08:54.253Z,6.15
2023-01-22T05:11:20.631Z,3.20
2023-01-22T05:13:47.071Z,5.47
2023-01-22T05:16:13.445Z,4.30
2023-01-22T05:18:39.850Z,5.10
2023-01-22T05:21:06.231Z,3.80
2023-01-22T05:23:32.561Z,4.03
2023-01-22T05:25:59.013Z,5.13
2023-01-22T05:28:25.355Z,3.75
2023-01-22T05:30:51.820Z,4.97
2023-01-22T05:33:18.220Z,5.43
2023-01-22T05:35:44.644Z,6.43
2023-01-22T05:38:11.003Z,6.72
2023-01-22T05:40:37.384Z,4.88
2023-01-22T05:43:04.920Z,5.22
2023-01-22T05:45:31.240Z,4.53
2023-01-22T05:47:58.333Z,4.38
2023-01-22T05:50:24.779Z,5.80
2023-01-22T05:52:53.737Z,4.93
2023-01-22T05:55:20.090Z,6.38
2023-01-22T05:57:46.771Z,4.25
2023-01-22T06:00:13.562Z,6.22
2023-01-22T06:02:40.026Z,5.82
2023-01-22T06:05:06.751Z,7.60
2023-01-22T06:07:33.078Z,5.88
2023-01-22T06:09:59.485Z,5.38
2023-01-22T06:12:25.852Z,4.18
2023-01-22T06:14:54.142Z,5.03
2023-01-22T06:17:20.940Z,5.70
2023-01-22T06:19:47.304Z,4.93
2023-01-22T06:22:13.726Z,4.03
2023-01-22T06:24:40.260Z,4.60
2023-01-22T06:27:06.589Z,3.42
2023-01-22T06:29:32.952Z,5.15
2023-01-22T06:31:59.341Z,4.35
2023-01-22T06:34:26.107Z,5.15
2023-01-22T06:36:52.453Z,4.07
2023-01-22T06:39:18.750Z,5.28
2023-01-22T06:41:46.661Z,4.25
2023-01-22T06:44:13.052Z,4.90
2023-01-22T06:46:39.540Z,4.72
2023-01-22T06:49:05.934Z,5.60
2023-01-22T06:51:32.271Z,5.40
2023-01-22T06:53:59.149Z,5.32
2023-01-22T06:56:25.462Z,7.22
2023-01-22T06:58:51.823Z,4.95
2023-01-22T07:01:18.227Z,4.55
2023-01-22T07:03:46.135Z,5.55
2023-01-22T07:06:12.816Z,3.97
2023-01-22T07:08:39.244Z,5.15
2023-01-22T07:11:07.766Z,5.05
2023-01-22T07:13:34.358Z,4.93
2023-01-22T07:16:01.909Z,6.70
2023-01-22T07:18:28.494Z,4.47
2023-01-22T07:20:54.911Z,4.63
2023-01-22T07:23:21.315Z,5.13
2023-01-22T07:25:47.653Z,5.13
2023-01-22T07:28:17.327Z,5.03
2023-01-22T07:30:46.373Z,6.93
2023-01-22T07:33:13.391Z,6.45
2023-01-22T07:35:40.109Z,6.32
2023-01-22T07:38:06.718Z,4.63
2023-01-22T07:40:33.291Z,4.13
2023-01-22T07:42:59.786Z,8.45
2023-01-22T07:45:26.195Z,7.32
2023-01-22T07:47:54.594Z,6.65
2023-01-22T07:50:22.105Z,2.63
2023-01-22T07:52:48.743Z,6.25
2023-01-22T07:55:15.376Z,3.45
2023-01-22T07:57:41.821Z,3.65
2023-01-22T08:00:10.683Z,3.92
2023-01-22T08:02:38.027Z,3.65
2023-01-22T08:05:04.704Z,4.20
2023-01-22T08:07:31.138Z,6.72
2023-01-22T08:09:57.568Z,4.90
2023-01-22T08:12:23.918Z,3.53
2023-01-22T08:14:50.365Z,3.92
2023-01-22T08:17:16.783Z,3.63
2023-01-22T08:19:43.104Z,6.18
2023-01-22T08:22:09.705Z,6.65
2023-01-22T08:24:36.560Z,4.43
2023-01-22T08:27:02.966Z,5.80
2023-01-22T08:29:29.307Z,4.68
2023-01-22T08:31:55.843Z,6.00
2023-01-22T08:34:22.255Z,3.63
2023-01-22T08:36:48.717Z,3.83
2023-01-22T08:39:15.236Z,3.83
2023-01-22T08:41:41.824Z,3.65
2023-01-22T08:44:11.722Z,3.67
2023-01-22T08:46:40.224Z,6.68
2023-01-22T08:49:07.054Z,7.93
2023-01-22T08:51:33.839Z,5.97
2023-01-22T08:54:00.204Z,4.03
2023-01-22T08:56:26.578Z,5.25
2023-01-22T08:58:53.039Z,4.28
2023-01-22T09:01:20.066Z,3.58
2023-01-22T09:03:46.484Z,6.35
2023-01-22T09:06:12.816Z,3.58
2023-01-22T09:08:39.383Z,3.60
2023-01-22T09:11:06.156Z,4.28
2023-01-22T09:13:32.728Z,4.20
2023-01-22T09:15:59.207Z,6.22
2023-01-22T09:18:25.768Z,3.05
2023-01-22T09:20:52.163Z,2.75
2023-01-22T09:23:18.816Z,3.95
2023-01-22T09:25:45.209Z,4.18
2023-01-22T09:28:12.338Z,4.63
2023-01-22T09:30:42.788Z,3.28
2023-01-22T09:33:09.271Z,4.25
2023-01-22T09:35:35.832Z,4.18
2023-01-22T09:38:03.417Z,5.60
2023-01-22T09:40:31.772Z,5.10
2023-01-22T09:43:05.451Z,5.03
2023-01-22T09:45:32.550Z,4.32
2023-01-22T09:48:02.734Z,5.35
2023-01-22T09:50:33.933Z,5.65
2023-01-22T09:53:03.592Z,3.80
2023-01-22T09:55:31.256Z,4.57
2023-01-22T09:58:00.158Z,3.22
2023-01-22T10:00:46.821Z,6.85
2023-01-22T10:03:20.484Z,5.32
2023-01-22T10:06:00.723Z,5.25
2023-01-22T10:08:32.691Z,3.28
2023-01-22T10:11:01.077Z,4.88
2023-01-22T10:13:32.486Z,3.92
2023-01-22T10:15:59.302Z,4.13
2023-01-22T10:18:37.588Z,5.30
2023-01-22T10:21:05.117Z,3.65
2023-01-22T10:23:32.480Z,4.70
2023-01-22T10:26:25.268Z,4.03
2023-01-22T10:28:54.331Z,6.35
2023-01-22T10:31:28.511Z,4.82
2023-01-22T10:33:55.834Z,4.80
2023-01-22T10:36:22.168Z,4.25
2023-01-22T10:38:48.480Z,3.50
2023-01-22T10:41:17.774Z,3.22
2023-01-22T10:43:44.597Z,3.17
2023-01-22T10:46:23.262Z,3.70
2023-01-22T10:48:59.788Z,6.10
2023-01-22T10:51:32.672Z,4.28
2023-01-22T10:53:59.525Z,2.58
2023-01-22T10:56:30.995Z,4.75
2023-01-22T10:58:58.185Z,3.90
2023-01-22T11:01:45.494Z,4.63
2023-01-22T11:04:21.751Z,4.30
2023-01-22T11:06:50.493Z,3.55
2023-01-22T11:09:25.917Z,2.92
2023-01-22T11:11:59.820Z,7.30
2023-01-22T11:14:29.231Z,6.07
2023-01-22T11:16:58.493Z,6.55
2023-01-22T11:19:36.902Z,3.47
2023-01-22T11:22:05.817Z,3.35
2023-01-22T11:24:32.462Z,6.35
2023-01-22T11:27:14.508Z,4.47
2023-01-22T11:29:47.042Z,1.40
2023-01-22T11:32:32.034Z,4.95
2023-01-22T11:35:10.319Z,2.65
2023-01-22T11:37:42.480Z,3.17
2023-01-22T11:40:28.120Z,5.35
2023-01-22T11:43:13.053Z,2.65
2023-01-22T11:45:47.451Z,2.88
2023-01-22T11:48:28.753Z,4.45
2023-01-22T11:51:21.344Z,2.95
2023-01-22T11:53:50.472Z,4.03
2023-01-22T11:56:29.861Z,3.67
2023-01-22T11:58:59.015Z,4.25
2023-01-22T12:01:37.348Z,2.78
2023-01-22T12:04:04.268Z,3.95
2023-01-22T12:06:46.023Z,4.15
2023-01-22T12:09:18.347Z,3.97
2023-01-22T12:11:50.723Z,3.97
2023-01-22T12:14:36.214Z,6.22
2023-01-22T12:17:05.506Z,5.30
2023-01-22T12:19:37.656Z,5.00
2023-01-22T12:22:09.302Z,5.18
2023-01-22T12:24:35.614Z,4.57
2023-01-22T12:27:14.161Z,5.47
2023-01-22T12:29:43.254Z,3.05
2023-01-22T12:32:12.343Z,3.78
2023-01-22T12:34:50.402Z,6.43
2023-01-22T12:37:21.584Z,2.72
2023-01-22T12:40:07.489Z,3.58
2023-01-22T12:42:43.988Z,7.20
2023-01-22T12:45:10.447Z,4.05
2023-01-22T12:47:45.594Z,4.10
2023-01-22T12:50:19.518Z,2.55
2023-01-22T12:52:47.993Z,4.13
2023-01-22T12:55:44.230Z,3.63
2023-01-22T12:58:23.629Z,4.88
2023-01-22T13:01:01.973Z,5.13
2023-01-22T13:03:32.031Z,3.92
2023-01-22T13:05:59.939Z,5.68
2023-01-22T13:08:35.576Z,2.88
2023-01-22T13:11:03.568Z,4.05
2023-01-22T13:13:48.590Z,6.00
2023-01-22T13:16:14.912Z,4.03
2023-01-22T13:18:43.612Z,3.63
2023-01-22T13:21:14.194Z,4.13
2023-01-22T13:23:41.868Z,3.58
2023-01-22T13:26:15.472Z,4.78
2023-01-22T13:28:47.513Z,4.13
2023-01-22T13:31:15.875Z,4.88
2023-01-22T13:33:52.441Z,5.05
2023-01-22T13:36:18.749Z,4.80
2023-01-22T13:38:51.025Z,4.38
2023-01-22T13:41:28.313Z,4.85
2023-01-22T13:43:54.870Z,5.35
2023-01-22T13:46:21.227Z,4.78
2023-01-22T13:48:47.652Z,4.22
2023-01-22T13:51:18.509Z,8.73
2023-01-22T13:53:53.807Z,4.18
2023-01-22T13:56:22.064Z,5.50
2023-01-22T13:58:49.392Z,4.90
2023-01-22T14:01:29.391Z,3.63
2023-01-22T14:04:00.276Z,3.75
2023-01-22T14:06:26.927Z,5.45
2023-01-22T14:08:54.573Z,4.85
2023-01-22T14:11:21.225Z,6.50
2023-01-22T14:13:49.020Z,8.13
2023-01-22T14:16:15.925Z,5.05
2023-01-22T14:18:45.123Z,6.45
2023-01-22T14:21:11.907Z,6.10
2023-01-22T14:23:38.540Z,4.88
2023-01-22T14:26:06.442Z,5.82
2023-01-22T14:28:33.931Z,4.68
2023-01-22T14:31:00.403Z,3.40
2023-01-22T14:33:28.321Z,5.68
2023-01-22T14:35:54.788Z,3.58
2023-01-22T14:38:21.427Z,5.47
2023-01-22T14:40:47.884Z,5.15
2023-01-22T14:43:14.292Z,5.03
2023-01-22T14:45:40.992Z,3.95
2023-01-22T14:48:07.424Z,3.08
2023-01-22T14:50:34.887Z,7.53
2023-01-22T14:53:01.260Z,6.32
2023-01-22T14:55:27.750Z,6.88
2023-01-22T14:57:54.785Z,6.55
2023-01-22T15:00:21.491Z,5.78
2023-01-22T15:02:48.163Z,4.22
2023-01-22T15:05:14.453Z,4.65
2023-01-22T15:07:40.805Z,6.53
2023-01-22T15:10:08.253Z,5.18
2023-01-22T15:12:34.666Z,5.93
2023-01-22T15:15:01.173Z,4.22
2023-01-22T15:17:27.895Z,3.58
2023-01-22T15:19:54.238Z,3.97
2023-01-22T15:22:20.698Z,4.32
2023-01-22T15:24:46.997Z,4.07
2023-01-22T15:27:18.331Z,4.10
2023-01-22T15:29:45.503Z,6.75
2023-01-22T15:32:11.914Z,5.35
2023-01-22T15:34:38.277Z,5.63
2023-01-22T15:37:05.015Z,4.70
2023-01-22T15:39:31.328Z,4.07
2023-01-22T15:41:57.650Z,5.57
2023-01-22T15:44:24.001Z,5.70
2023-01-22T15:46:50.414Z,5.55
2023-01-22T15:49:18.085Z,5.63
2023-01-22T15:51:44.594Z,4.78
2023-01-22T15:54:14.142Z,5.88
2023-01-22T15:56:40.613Z,7.47
2023-01-22T15:59:07.411Z,3.65
2023-01-22T16:01:33.901Z,5.45
2023-01-22T16:04:01.735Z,3.55
2023-01-22T16:06:28.958Z,5.55
2023-01-22T16:08:57.534Z,5.65
2023-01-22T16:11:24.692Z,8.35
2023-01-22T16:13:51.228Z,8.02
2023-01-22T16:16:37.174Z,5.15
2023-01-22T16:19:04.790Z,5.38
2023-01-22T16:21:31.142Z,4.82
2023-01-22T16:23:58.757Z,9.02
2023-01-22T16:26:26.422Z,5.78
2023-01-22T16:28:54.422Z,6.28
2023-01-22T16:31:23.366Z,5.20
2023-01-22T16:33:54.437Z,7.72
2023-01-22T16:36:21.550Z,6.32
2023-01-22T16:38:48.631Z,5.93
2023-01-22T16:41:24.253Z,8.63
2023-01-22T16:43:55.813Z,8.75
2023-01-22T16:46:23.563Z,5.50
2023-01-22T16:48:54.937Z,5.32
2023-01-22T16:51:24.736Z,5.68
2023-01-22T16:53:51.674Z,5.35
2023-01-22T16:56:18.018Z,5.68
2023-01-22T16:58:44.409Z,9.27
2023-01-22T17:01:14.046Z,6.88
2023-01-22T17:03:40.625Z,6.20
2023-01-22T17:06:07.206Z,5.15
2023-01-22T17:08:33.684Z,5.50
2023-01-22T17:11:00.006Z,5.88
2023-01-22T17:13:26.317Z,5.68
2023-01-22T17:15:53.673Z,7.15
2023-01-22T17:18:20.112Z,6.25
2023-01-22T17:21:01.389Z,5.68
2023-01-22T17:23:28.431Z,5.65
2023-01-22T17:25:54.848Z,7.13
2023-01-22T17:28:22.074Z,7.60
2023-01-22T17:30:48.888Z,5.93
2023-01-22T17:33:15.442Z,5.95
2023-01-22T17:35:44.439Z,9.23
2023-01-22T17:38:10.783Z,7.82
2023-01-22T17:40:37.405Z,5.95
2023-01-22T17:43:04.119Z,7.63
2023-01-22T17:45:30.548Z,8.65
2023-01-22T17:47:56.975Z,8.30
2023-01-22T17:50:23.380Z,10.85
2023-01-22T17:52:49.853Z,8.15
2023-01-22T17:55:16.288Z,9.07
2023-01-22T17:57:42.704Z,7.00
2023-01-22T18:00:10.000Z,8.13
2023-01-22T18:02:36.390Z,7.70
2023-01-22T18:05:02.791Z,6.82
2023-01-22T18:07:29.100Z,6.60
2023-01-22T18:09:55.509Z,7.00
2023-01-22T18:12:21.893Z,7.53
2023-01-22T18:14:48.333Z,9.27
2023-01-22T18:17:14.656Z,7.40
2023-01-22T18:19:41.028Z,8.57
2023-01-22T18:22:07.356Z,7.63
2023-01-22T18:24:36.241Z,9.18
2023-01-22T18:27:02.574Z,8.10
2023-01-22T18:29:30.236Z,7.15
2023-01-22T18:31:56.734Z,7.38
2023-01-22T18:34:23.202Z,9.05
2023-01-22T18:36:49.678Z,6.88
2023-01-22T18:39:17.678Z,6.30
2023-01-22T18:41:45.095Z,7.70
2023-01-22T18:44:12.979Z,10.43
2023-01-22T18:46:42.207Z,6.35
2023-01-22T18:49:11.527Z,7.07
2023-01-22T18:51:38.160Z,8.50
2023-01-22T18:54:07.436Z,7.80
2023-01-22T18:56:34.270Z,6.80
2023-01-22T18:59:00.870Z,8.25
2023-01-22T19:01:28.981Z,9.23
2023-01-22T19:03:58.201Z,12.05
2023-01-22T19:06:25.876Z,8.93
2023-01-22T19:09:02.712Z,8.75
2023-01-22T19:11:37.601Z,7.70
2023-01-22T19:14:06.075Z,10.32
2023-01-22T19:16:33.167Z,11.48
2023-01-22T19:19:00.704Z,8.18
2023-01-22T19:21:27.618Z,8.52
2023-01-22T19:23:55.661Z,9.90
2023-01-22T19:26:26.603Z,10.68
2023-01-22T19:28:54.706Z,10.98
2023-01-22T19:31:23.180Z,8.05
2023-01-22T19:33:50.394Z,10.38
2023-01-22T19:36:17.157Z,8.63
2023-01-22T19:38:43.517Z,10.50
2023-01-22T19:41:10.237Z,10.30
2023-01-22T19:43:36.938Z,9.98
2023-01-22T19:46:04.390Z,9.32
2023-01-22T19:48:31.328Z,9.88
2023-01-22T19:51:01.568Z,10.75
2023-01-22T19:53:28.369Z,8.75
2023-01-22T19:55:54.757Z,9.57
2023-01-22T19:58:21.431Z,9.93
2023-01-22T20:00:47.905Z,13.35
2023-01-22T20:03:14.313Z,8.38
2023-01-22T20:05:41.344Z,9.93
2023-01-22T20:08:08.073Z,8.15
2023-01-22T20:10:37.307Z,8.13
2023-01-22T20:13:04.290Z,11.63
2023-01-22T20:15:30.911Z,13.68
2023-01-22T20:17:57.267Z,11.07
2023-01-22T20:20:23.734Z,9.35
2023-01-22T20:22:52.215Z,7.70
2023-01-22T20:25:20.907Z,10.40
2023-01-22T20:27:48.288Z,10.98
2023-01-22T20:30:14.754Z,11.65
2023-01-22T20:32:41.084Z,8.45
2023-01-22T20:35:07.709Z,12.07
2023-01-22T20:37:34.218Z,12.55
2023-01-22T20:40:00.863Z,6.05
2023-01-22T20:42:28.356Z,10.18
2023-01-22T20:44:58.170Z,12.70
2023-01-22T20:47:24.910Z,8.90
2023-01-22T20:49:51.322Z,11.02
2023-01-22T20:52:17.799Z,11.23
2023-01-22T20:55:00.485Z,10.10
2023-01-22T20:57:28.904Z,9.57
2023-01-22T20:59:55.271Z,12.38
2023-01-22T21:02:21.700Z,13.32
2023-01-22T21:04:50.270Z,14.48
2023-01-22T21:07:16.650Z,13.15
2023-01-22T21:09:43.307Z,13.77
2023-01-22T21:12:12.994Z,8.52
2023-01-22T21:14:39.987Z,13.95
2023-01-22T21:17:06.341Z,13.38
2023-01-22T21:19:32.885Z,11.18
2023-01-22T21:22:00.975Z,12.50
2023-01-22T21:24:27.607Z,12.07
2023-01-22T21:26:53.941Z,16.75
2023-01-22T21:29:21.679Z,11.63
2023-01-22T21:31:49.690Z,16.60
2023-01-22T21:34:17.363Z,11.20
2023-01-22T21:36:45.118Z,11.80
2023-01-22T21:39:14.581Z,14.82
2023-01-22T21:41:41.648Z,15.30
2023-01-22T21:44:29.316Z,11.00
2023-01-22T21:46:57.252Z,14.73
2023-01-22T21:49:24.550Z,10.80
2023-01-22T21:51:58.083Z,12.80
2023-01-22T21:54:37.747Z,12.00
2023-01-22T21:57:05.075Z,16.38
2023-01-22T21:59:31.427Z,13.48
2023-01-22T22:01:57.862Z,9.65
2023-01-22T22:04:25.492Z,9.43
2023-01-22T22:06:52.203Z,10.73
2023-01-22T22:09:20.925Z,10.15
2023-01-22T22:11:47.893Z,9.40
2023-01-22T22:14:18.024Z,15.15
2023-01-22T22:16:44.501Z,11.55
2023-01-22T22:19:11.307Z,9.85
2023-01-22T22:21:37.694Z,9.52
2023-01-22T22:24:04.315Z,11.63
2023-01-22T22:26:30.864Z,9.52
2023-01-22T22:28:57.340Z,7.05
2023-01-22T22:31:24.221Z,13.13
2023-01-22T22:33:51.804Z,10.55
2023-01-22T22:36:19.329Z,9.07
2023-01-22T22:38:46.146Z,6.45
2023-01-22T22:41:17.405Z,12.77
2023-01-22T22:43:44.704Z,9.07
2023-01-22T22:46:15.478Z,11.07
2023-01-22T22:48:42.145Z,11.05
2023-01-22T22:51:09.552Z,9.10
2023-01-22T22:53:35.879Z,10.13
2023-01-22T22:56:03.094Z,9.60
2023-01-22T22:58:29.420Z,11.60
2023-01-22T23:00:55.769Z,9.98
2023-01-22T23:03:22.160Z,11.57
2023-01-22T23:05:48.567Z,8.88
2023-01-22T23:08:15.112Z,13.13
2023-01-22T23:10:41.497Z,11.82
2023-01-22T23:13:07.890Z,13.60
2023-01-22T23:15:34.257Z,12.20
2023-01-22T23:18:00.744Z,12.60
2023-01-22T23:20:27.737Z,8.45
2023-01-22T23:22:55.023Z,11.00
2023-01-22T23:25:21.498Z,12.93
2023-01-22T23:27:48.259Z,13.65
2023-01-22T23:30:14.762Z,11.95
2023-01-22T23:32:41.162Z,13.25
2023-01-22T23:35:07.620Z,13.52
2023-01-22T23:37:34.037Z,10.40
2023-01-22T23:40:00.435Z,11.48
2023-01-22T23:42:26.746Z,9.00
2023-01-22T23:44:53.136Z,12.30
2023-01-22T23:47:20.784Z,8.90
2023-01-22T23:49:47.130Z,12.40
2023-01-22T23:52:13.519Z,10.25
2023-01-22T23:54:40.065Z,10.15
2023-01-22T23:57:06.371Z,9.10
2023-01-22T23:59:32.678Z,10.30
